createdAt,value
2017-01-23T00:00:33.793Z,86.09
2017-01-23T00:01:22.949Z,85.99
2017-01-23T00:02:11.724Z,86.09
2017-01-23T00:02:59.918Z,86.18
2017-01-23T00:03:49.172Z,85.99
2017-01-23T00:04:37.693Z,85.99
2017-01-23T00:05:26.644Z,85.99
2017-01-23T00:06:15.117Z,86.18
2017-01-23T00:07:04.185Z,86.18
2017-01-23T00:07:52.674Z,86.09
2017-01-23T00:08:41.341Z,86.09
2017-01-23T00:09:26.801Z,85.71
2017-01-23T00:10:07.278Z,86.09
2017-01-23T00:10:47.738Z,86.09
2017-01-23T00:11:29.044Z,85.71
2017-01-23T00:12:09.527Z,86.09
2017-01-23T00:12:50.068Z,85.61
2017-01-23T00:13:30.535Z,85.61
2017-01-23T00:14:11.035Z,85.42
2017-01-23T00:14:51.529Z,85.52
2017-01-23T00:15:31.971Z,86.18
2017-01-23T00:16:12.472Z,85.42
2017-01-23T00:16:52.924Z,85.33
2017-01-23T00:17:33.427Z,85.42
2017-01-23T00:18:13.890Z,85.42
2017-01-23T00:18:55.335Z,85.52
2017-01-23T00:19:36.761Z,85.33
2017-01-23T00:20:17.218Z,85.33
2017-01-23T00:20:57.764Z,85.33
2017-01-23T00:21:38.296Z,85.52
2017-01-23T00:22:18.784Z,85.33
2017-01-23T00:22:59.226Z,85.33
2017-01-23T00:23:39.756Z,85.33
2017-01-23T00:24:21.058Z,85.33
2017-01-23T00:25:01.540Z,85.52
2017-01-23T00:25:42.546Z,85.42
2017-01-23T00:26:23.060Z,85.52
2017-01-23T00:27:03.502Z,85.33
2017-01-23T00:27:44.019Z,85.9
2017-01-23T00:28:24.520Z,85.71
2017-01-23T00:29:05.899Z,86.18
2017-01-23T00:29:46.304Z,85.9
2017-01-23T00:30:26.834Z,85.9
2017-01-23T00:31:07.959Z,85.99
2017-01-23T00:31:48.405Z,85.9
2017-01-23T00:32:28.854Z,85.9
2017-01-23T00:33:09.383Z,85.9
2017-01-23T00:33:49.827Z,85.99
2017-01-23T00:34:30.342Z,85.8
2017-01-23T00:35:11.726Z,85.9
2017-01-23T00:35:52.997Z,85.9
2017-01-23T00:36:33.467Z,85.9
2017-01-23T00:37:14.535Z,85.99
2017-01-23T00:37:55.073Z,85.71
2017-01-23T00:38:35.568Z,85.9
2017-01-23T00:39:16.106Z,85.61
2017-01-23T00:39:57.448Z,85.9
2017-01-23T00:40:38.959Z,85.71
2017-01-23T00:41:19.425Z,86.09
2017-01-23T00:41:59.892Z,85.61
2017-01-23T00:42:40.429Z,85.99
2017-01-23T00:43:21.008Z,85.99
2017-01-23T00:44:01.447Z,86.09
2017-01-23T00:44:43.691Z,86.18
2017-01-23T00:45:24.120Z,86.37
2017-01-23T00:46:04.595Z,86.09
2017-01-23T00:46:45.683Z,86.28
2017-01-23T00:47:26.132Z,85.99
2017-01-23T00:48:06.637Z,86.09
2017-01-23T00:48:47.201Z,86.09
2017-01-23T00:49:28.534Z,86.18
2017-01-23T00:50:09.086Z,86.18
2017-01-23T00:50:49.579Z,86.09
2017-01-23T00:51:30.116Z,86.28
2017-01-23T00:52:10.634Z,86.09
2017-01-23T00:52:51.083Z,86.28
2017-01-23T00:53:31.654Z,85.99
2017-01-23T00:54:12.134Z,85.9
2017-01-23T00:54:52.665Z,85.8
2017-01-23T00:55:33.208Z,85.8
2017-01-23T00:56:13.714Z,85.99
2017-01-23T00:56:54.179Z,86.37
2017-01-23T00:57:34.659Z,85.71
2017-01-23T00:58:15.154Z,85.99
2017-01-23T00:58:57.220Z,85.8
2017-01-23T00:59:37.643Z,85.99
2017-01-23T01:00:18.181Z,85.61
2017-01-23T01:00:58.679Z,85.61
2017-01-23T01:01:39.147Z,85.9
2017-01-23T01:02:19.669Z,85.9
2017-01-23T01:03:00.158Z,85.99
2017-01-23T01:03:40.660Z,85.71
2017-01-23T01:04:21.180Z,85.99
2017-01-23T01:05:02.309Z,85.99
2017-01-23T01:05:42.861Z,85.99
2017-01-23T01:06:23.410Z,85.99
2017-01-23T01:07:03.830Z,85.9
2017-01-23T01:07:44.409Z,85.9
2017-01-23T01:08:24.929Z,85.8
2017-01-23T01:09:05.393Z,85.9
2017-01-23T01:09:45.938Z,85.71
2017-01-23T01:10:26.458Z,85.9
2017-01-23T01:11:06.903Z,85.9
2017-01-23T01:11:47.394Z,86.37
2017-01-23T01:12:27.905Z,86.18
2017-01-23T01:13:08.445Z,86.18
2017-01-23T01:13:48.965Z,86.18
2017-01-23T01:14:29.878Z,85.71
2017-01-23T01:15:10.393Z,85.9
2017-01-23T01:15:50.881Z,85.42
2017-01-23T01:16:31.368Z,85.8
2017-01-23T01:17:11.841Z,85.9
2017-01-23T01:17:52.323Z,85.9
2017-01-23T01:18:32.845Z,85.9
2017-01-23T01:19:13.311Z,85.71
2017-01-23T01:19:53.779Z,85.99
2017-01-23T01:20:34.251Z,85.8
2017-01-23T01:21:14.751Z,85.8
2017-01-23T01:21:55.226Z,86.18
2017-01-23T01:22:35.706Z,85.9
2017-01-23T01:23:16.385Z,85.9
2017-01-23T01:23:56.810Z,86.09
2017-01-23T01:24:37.279Z,86.09
2017-01-23T01:25:18.663Z,85.42
2017-01-23T01:25:59.148Z,85.8
2017-01-23T01:26:39.587Z,85.61
2017-01-23T01:27:20.162Z,85.9
2017-01-23T01:28:00.659Z,86.09
2017-01-23T01:28:41.115Z,86.09
2017-01-23T01:29:21.649Z,85.9
2017-01-23T01:30:02.204Z,86.09
2017-01-23T01:30:42.645Z,85.8
2017-01-23T01:31:23.831Z,86.28
2017-01-23T01:32:04.361Z,85.99
2017-01-23T01:32:44.846Z,86.18
2017-01-23T01:33:25.326Z,86.09
2017-01-23T01:34:05.821Z,86.09
2017-01-23T01:34:47.154Z,86.09
2017-01-23T01:35:27.664Z,85.99
2017-01-23T01:36:08.096Z,86.09
2017-01-23T01:36:49.540Z,86.09
2017-01-23T01:37:30.040Z,85.99
2017-01-23T01:38:10.509Z,85.8
2017-01-23T01:38:51.051Z,85.71
2017-01-23T01:39:31.514Z,85.71
2017-01-23T01:40:12.010Z,85.99
2017-01-23T01:40:52.463Z,85.99
2017-01-23T01:41:33.890Z,85.99
2017-01-23T01:42:15.144Z,85.9
2017-01-23T01:42:55.609Z,85.9
2017-01-23T01:43:36.168Z,85.99
2017-01-23T01:44:16.592Z,85.99
2017-01-23T01:44:57.099Z,85.9
2017-01-23T01:45:37.614Z,85.9
2017-01-23T01:46:19.680Z,85.99
2017-01-23T01:47:00.165Z,85.99
2017-01-23T01:47:40.661Z,85.9
2017-01-23T01:48:21.163Z,85.99
2017-01-23T01:49:02.344Z,86.09
2017-01-23T01:49:42.872Z,86.09
2017-01-23T01:50:23.325Z,85.9
2017-01-23T01:51:03.826Z,85.9
2017-01-23T01:51:44.338Z,85.9
2017-01-23T01:52:24.820Z,85.99
2017-01-23T01:53:05.320Z,85.99
2017-01-23T01:53:45.747Z,85.9
2017-01-23T01:54:26.263Z,85.99
2017-01-23T01:55:06.707Z,85.8
2017-01-23T01:55:47.225Z,85.8
2017-01-23T01:56:27.769Z,85.61
2017-01-23T01:57:08.253Z,85.71
2017-01-23T01:57:48.851Z,85.9
2017-01-23T01:58:29.439Z,85.9
2017-01-23T01:59:09.981Z,86.09
2017-01-23T01:59:50.526Z,86.18
2017-01-23T02:00:30.938Z,86.18
2017-01-23T02:01:11.490Z,86.18
2017-01-23T02:01:52.009Z,85.99
2017-01-23T02:02:32.509Z,86.18
2017-01-23T02:03:13.089Z,86.18
2017-01-23T02:03:53.632Z,86.09
2017-01-23T02:04:34.095Z,86.18
2017-01-23T02:05:15.550Z,86.09
2017-01-23T02:05:56.016Z,85.99
2017-01-23T02:06:36.557Z,85.9
2017-01-23T02:07:16.979Z,85.99
2017-01-23T02:07:57.559Z,86.18
2017-01-23T02:08:39.875Z,86.09
2017-01-23T02:09:20.397Z,86.18
2017-01-23T02:10:00.904Z,86.18
2017-01-23T02:10:41.374Z,86.18
2017-01-23T02:11:21.848Z,86.09
2017-01-23T02:12:02.340Z,85.99
2017-01-23T02:12:43.384Z,86.09
2017-01-23T02:13:23.848Z,85.99
2017-01-23T02:14:04.896Z,86.18
2017-01-23T02:14:46.242Z,86.18
2017-01-23T02:15:26.716Z,85.99
2017-01-23T02:16:07.232Z,86.09
2017-01-23T02:16:47.709Z,85.99
2017-01-23T02:17:28.238Z,86.18
2017-01-23T02:18:08.760Z,85.8
2017-01-23T02:18:49.842Z,86.09
2017-01-23T02:19:32.270Z,85.52
2017-01-23T02:20:12.789Z,85.8
2017-01-23T02:20:53.286Z,86.09
2017-01-23T02:21:33.780Z,86.37
2017-01-23T02:22:14.251Z,85.71
2017-01-23T02:22:55.000Z,85.52
2017-01-23T02:23:36.476Z,85.85
2017-01-23T02:24:16.864Z,86.09
2017-01-23T02:24:58.221Z,85.8
2017-01-23T02:25:38.737Z,86.18
2017-01-23T02:26:19.188Z,86.18
2017-01-23T02:26:59.747Z,86.09
2017-01-23T02:27:40.208Z,85.9
2017-01-23T02:28:20.755Z,85.8
2017-01-23T02:29:01.177Z,85.9
2017-01-23T02:29:41.684Z,85.99
2017-01-23T02:30:22.228Z,85.9
2017-01-23T02:31:04.414Z,85.71
2017-01-23T02:31:44.925Z,85.8
2017-01-23T02:32:26.239Z,85.9
2017-01-23T02:33:06.863Z,86.09
2017-01-23T02:33:47.431Z,86.09
2017-01-23T02:34:28.742Z,85.99
2017-01-23T02:35:09.918Z,86.18
2017-01-23T02:35:50.450Z,86.18
2017-01-23T02:36:30.896Z,86.18
2017-01-23T02:37:11.423Z,86.09
2017-01-23T02:37:51.867Z,86.18
2017-01-23T02:38:32.513Z,86.18
2017-01-23T02:39:13.040Z,85.8
2017-01-23T02:39:53.448Z,86.09
2017-01-23T02:40:34.650Z,86.18
2017-01-23T02:41:15.719Z,86.09
2017-01-23T02:41:56.219Z,86.18
2017-01-23T02:42:36.714Z,86.09
2017-01-23T02:43:17.263Z,85.99
2017-01-23T02:43:57.773Z,85.9
2017-01-23T02:44:38.817Z,86.18
2017-01-23T02:45:19.346Z,86.09
2017-01-23T02:45:59.836Z,85.33
2017-01-23T02:46:40.316Z,85.42
2017-01-23T02:47:20.776Z,85.42
2017-01-23T02:48:02.047Z,85.61
2017-01-23T02:48:42.502Z,85.61
2017-01-23T02:49:23.779Z,85.52
2017-01-23T02:50:04.271Z,85.61
2017-01-23T02:50:44.788Z,85.33
2017-01-23T02:51:25.287Z,85.33
2017-01-23T02:52:05.822Z,85.33
2017-01-23T02:52:46.276Z,85.61
2017-01-23T02:53:26.744Z,85.33
2017-01-23T02:54:08.214Z,85.52
2017-01-23T02:54:49.627Z,85.9
2017-01-23T02:55:30.739Z,86.09
2017-01-23T02:56:11.210Z,86.28
2017-01-23T02:56:51.732Z,86.18
2017-01-23T02:57:32.898Z,86.09
2017-01-23T02:58:13.391Z,86.09
2017-01-23T02:58:53.941Z,86.09
2017-01-23T02:59:34.378Z,86.18
2017-01-23T03:00:15.898Z,86.18
2017-01-23T03:00:56.384Z,86.18
2017-01-23T03:01:37.033Z,86.18
2017-01-23T03:02:17.519Z,86.09
2017-01-23T03:02:58.033Z,85.8
2017-01-23T03:03:39.570Z,86.09
2017-01-23T03:04:20.004Z,85.9
2017-01-23T03:05:00.586Z,85.42
2017-01-23T03:05:41.017Z,85.33
2017-01-23T03:06:22.160Z,85.71
2017-01-23T03:07:02.620Z,85.52
2017-01-23T03:07:43.226Z,85.8
2017-01-23T03:08:23.715Z,85.42
2017-01-23T03:09:04.176Z,85.61
2017-01-23T03:09:44.690Z,85.61
2017-01-23T03:10:25.921Z,85.52
2017-01-23T03:11:06.482Z,85.24
2017-01-23T03:11:46.875Z,85.24
2017-01-23T03:12:27.386Z,85.05
2017-01-23T03:13:07.870Z,85.24
2017-01-23T03:13:48.377Z,85.33
2017-01-23T03:14:29.799Z,85.24
2017-01-23T03:15:10.309Z,85.14
2017-01-23T03:15:51.565Z,85.24
2017-01-23T03:16:32.057Z,85.42
2017-01-23T03:17:12.550Z,85.42
2017-01-23T03:17:53.031Z,85.24
2017-01-23T03:18:33.511Z,85.14
2017-01-23T03:19:14.644Z,85.24
2017-01-23T03:19:55.177Z,85.33
2017-01-23T03:20:35.577Z,85.42
2017-01-23T03:21:16.139Z,85.24
2017-01-23T03:21:56.618Z,85.14
2017-01-23T03:22:37.111Z,85.14
2017-01-23T03:23:18.286Z,85.14
2017-01-23T03:23:58.799Z,85.42
2017-01-23T03:24:39.293Z,85.24
2017-01-23T03:25:19.780Z,85.24
2017-01-23T03:26:00.904Z,85.33
2017-01-23T03:26:41.445Z,85.33
2017-01-23T03:27:22.574Z,85.05
2017-01-23T03:28:03.016Z,85.24
2017-01-23T03:28:43.517Z,85.33
2017-01-23T03:29:24.006Z,85.42
2017-01-23T03:30:04.537Z,85.24
2017-01-23T03:30:44.949Z,85.61
2017-01-23T03:31:25.464Z,85.61
2017-01-23T03:32:05.986Z,85.42
2017-01-23T03:32:46.491Z,84.67
2017-01-23T03:33:26.992Z,84.86
2017-01-23T03:34:07.568Z,84.86
2017-01-23T03:34:48.571Z,84.77
2017-01-23T03:35:29.053Z,84.86
2017-01-23T03:36:09.563Z,84.95
2017-01-23T03:36:50.061Z,84.95
2017-01-23T03:37:30.581Z,84.86
2017-01-23T03:38:11.066Z,84.95
2017-01-23T03:38:52.267Z,84.95
2017-01-23T03:39:32.759Z,84.48
2017-01-23T03:40:13.268Z,84.77
2017-01-23T03:40:53.756Z,84.86
2017-01-23T03:41:34.236Z,84.67
2017-01-23T03:42:14.755Z,84.77
2017-01-23T03:42:55.280Z,84.67
2017-01-23T03:43:35.796Z,84.95
2017-01-23T03:44:16.226Z,84.86
2017-01-23T03:44:56.772Z,84.86
2017-01-23T03:45:38.154Z,84.67
2017-01-23T03:46:18.710Z,84.95
2017-01-23T03:46:59.155Z,84.67
2017-01-23T03:47:40.317Z,84.67
2017-01-23T03:48:20.786Z,84.39
2017-01-23T03:49:01.275Z,84.67
2017-01-23T03:49:41.765Z,84.86
2017-01-23T03:50:22.232Z,84.71
2017-01-23T03:51:02.754Z,84.67
2017-01-23T03:51:43.247Z,84.48
2017-01-23T03:52:23.763Z,84.67
2017-01-23T03:53:04.271Z,84.29
2017-01-23T03:53:44.772Z,84.29
2017-01-23T03:54:25.251Z,84.2
2017-01-23T03:55:06.742Z,84.2
2017-01-23T03:55:47.207Z,84.48
2017-01-23T03:56:28.634Z,84.33
2017-01-23T03:57:10.737Z,84.05
2017-01-23T03:57:51.235Z,84.23
2017-01-23T03:58:31.675Z,83.95
2017-01-23T03:59:12.136Z,83.86
2017-01-23T03:59:52.620Z,83.86
2017-01-23T04:00:33.115Z,84.05
2017-01-23T04:01:14.322Z,83.86
2017-01-23T04:01:54.822Z,84.05
2017-01-23T04:02:35.267Z,83.86
2017-01-23T04:03:15.762Z,84.05
2017-01-23T04:03:56.209Z,84.05
2017-01-23T04:04:36.724Z,84.14
2017-01-23T04:05:20.136Z,84.14
2017-01-23T04:06:01.319Z,84.14
2017-01-23T04:06:41.829Z,84.23
2017-01-23T04:07:22.931Z,84.05
2017-01-23T04:08:03.368Z,83.76
2017-01-23T04:08:43.968Z,83.48
2017-01-23T04:09:24.475Z,83.1
2017-01-23T04:10:04.928Z,83.29
2017-01-23T04:10:47.101Z,84.05
2017-01-23T04:11:27.574Z,83.29
2017-01-23T04:12:08.738Z,83.1
2017-01-23T04:12:49.190Z,83.39
2017-01-23T04:13:29.734Z,83.2
2017-01-23T04:14:10.138Z,83.29
2017-01-23T04:14:51.327Z,83.86
2017-01-23T04:15:31.783Z,83.86
2017-01-23T04:16:12.356Z,83.39
2017-01-23T04:16:54.352Z,84.05
2017-01-23T04:17:34.852Z,84.05
2017-01-23T04:18:15.296Z,83.86
2017-01-23T04:18:55.805Z,84.23
2017-01-23T04:19:36.342Z,84.23
2017-01-23T04:20:16.836Z,84.23
2017-01-23T04:20:57.265Z,84.23
2017-01-23T04:21:37.772Z,84.23
2017-01-23T04:22:18.247Z,83.86
2017-01-23T04:22:58.723Z,83.67
2017-01-23T04:23:39.738Z,83.95
2017-01-23T04:24:21.021Z,83.67
2017-01-23T04:25:01.567Z,83.86
2017-01-23T04:25:42.013Z,83.39
2017-01-23T04:26:23.465Z,83.48
2017-01-23T04:27:03.942Z,83.29
2017-01-23T04:27:44.464Z,83.39
2017-01-23T04:28:25.418Z,83.39
2017-01-23T04:29:05.908Z,83.29
2017-01-23T04:29:46.352Z,83.29
2017-01-23T04:30:26.854Z,83.29
2017-01-23T04:31:07.320Z,83.29
2017-01-23T04:31:47.830Z,83.29
2017-01-23T04:32:28.348Z,83.29
2017-01-23T04:33:08.787Z,83.58
2017-01-23T04:33:49.295Z,83.2
2017-01-23T04:34:29.810Z,83.67
2017-01-23T04:35:10.239Z,83.29
2017-01-23T04:35:50.737Z,84.05
2017-01-23T04:36:31.189Z,83.86
2017-01-23T04:37:11.688Z,84.23
2017-01-23T04:37:53.186Z,83.86
2017-01-23T04:38:33.727Z,83.76
2017-01-23T04:39:14.159Z,83.86
2017-01-23T04:39:54.696Z,83.76
2017-01-23T04:40:35.230Z,84.14
2017-01-23T04:41:15.743Z,84.14
2017-01-23T04:41:56.217Z,83.86
2017-01-23T04:42:37.208Z,83.86
2017-01-23T04:43:18.558Z,84.23
2017-01-23T04:43:59.003Z,84.14
2017-01-23T04:44:40.131Z,84.23
2017-01-23T04:45:21.128Z,84.05
2017-01-23T04:46:02.128Z,83.86
2017-01-23T04:46:43.382Z,84.05
2017-01-23T04:47:23.855Z,84.01
2017-01-23T04:48:04.338Z,84.05
2017-01-23T04:48:44.809Z,84.05
2017-01-23T04:49:25.331Z,83.86
2017-01-23T04:50:05.928Z,84.05
2017-01-23T04:50:46.350Z,84.33
2017-01-23T04:51:26.858Z,84.05
2017-01-23T04:52:09.070Z,84.39
2017-01-23T04:52:49.505Z,84.23
2017-01-23T04:53:31.832Z,84.01
2017-01-23T04:54:13.273Z,84.9
2017-01-23T04:54:54.728Z,84.67
2017-01-23T04:55:36.062Z,84.67
2017-01-23T04:56:16.543Z,84.67
2017-01-23T04:56:57.039Z,84.67
2017-01-23T04:57:37.523Z,84.58
2017-01-23T04:58:18.031Z,84.67
2017-01-23T04:58:58.527Z,84.86
2017-01-23T04:59:39.029Z,84.67
2017-01-23T05:00:19.558Z,84.67
2017-01-23T05:01:00.064Z,84.67
2017-01-23T05:01:41.110Z,84.58
2017-01-23T05:02:21.666Z,84.58
2017-01-23T05:03:02.196Z,84.67
2017-01-23T05:03:42.675Z,84.48
2017-01-23T05:04:24.184Z,84.58
2017-01-23T05:05:04.655Z,84.77
2017-01-23T05:05:45.770Z,84.67
2017-01-23T05:06:28.284Z,84.58
2017-01-23T05:07:08.789Z,84.77
2017-01-23T05:07:49.266Z,84.58
2017-01-23T05:08:29.894Z,84.48
2017-01-23T05:09:10.431Z,85.05
2017-01-23T05:09:50.969Z,84.95
2017-01-23T05:10:31.436Z,85.05
2017-01-23T05:11:12.054Z,84.77
2017-01-23T05:11:53.367Z,84.67
2017-01-23T05:12:33.846Z,84.86
2017-01-23T05:13:14.373Z,84.77
2017-01-23T05:13:54.860Z,84.86
2017-01-23T05:14:36.069Z,84.77
2017-01-23T05:15:16.568Z,84.95
2017-01-23T05:15:57.129Z,84.77
2017-01-23T05:16:37.643Z,84.95
2017-01-23T05:17:18.191Z,84.29
2017-01-23T05:17:58.713Z,84.48
2017-01-23T05:18:39.194Z,84.48
2017-01-23T05:19:19.778Z,84.58
2017-01-23T05:20:00.258Z,84.58
2017-01-23T05:20:40.836Z,84.29
2017-01-23T05:21:21.352Z,84.39
2017-01-23T05:22:01.859Z,84.29
2017-01-23T05:22:42.340Z,85.05
2017-01-23T05:23:22.873Z,84.77
2017-01-23T05:24:03.401Z,84.77
2017-01-23T05:24:43.860Z,84.77
2017-01-23T05:25:24.405Z,85.33
2017-01-23T05:26:04.904Z,85.14
2017-01-23T05:26:46.288Z,85.14
2017-01-23T05:27:27.253Z,84.77
2017-01-23T05:28:07.790Z,84.67
2017-01-23T05:28:48.308Z,85.24
2017-01-23T05:29:29.032Z,85.33
2017-01-23T05:30:09.486Z,84.95
2017-01-23T05:30:50.252Z,84.48
2017-01-23T05:31:30.718Z,84.86
2017-01-23T05:32:11.218Z,84.86
2017-01-23T05:32:52.065Z,84.95
2017-01-23T05:33:32.557Z,84.77
2017-01-23T05:34:13.070Z,85.24
2017-01-23T05:34:53.633Z,85.52
2017-01-23T05:35:34.116Z,85.33
2017-01-23T05:36:14.642Z,85.14
2017-01-23T05:36:55.127Z,85.24
2017-01-23T05:37:35.571Z,85.14
2017-01-23T05:38:16.079Z,85.33
2017-01-23T05:38:56.560Z,85.33
2017-01-23T05:39:37.044Z,85.42
2017-01-23T05:40:17.539Z,85.24
2017-01-23T05:40:58.018Z,85.33
2017-01-23T05:41:38.540Z,85.8
2017-01-23T05:42:19.054Z,85.8
2017-01-23T05:42:59.537Z,85.71
2017-01-23T05:43:39.976Z,85.61
2017-01-23T05:44:20.468Z,85.71
2017-01-23T05:45:00.958Z,85.52
2017-01-23T05:45:41.427Z,85.71
2017-01-23T05:46:21.952Z,85.8
2017-01-23T05:47:02.488Z,85.8
2017-01-23T05:47:43.101Z,85.71
2017-01-23T05:48:23.591Z,85.33
2017-01-23T05:49:04.077Z,85.52
2017-01-23T05:49:44.523Z,85.33
2017-01-23T05:50:25.021Z,85.52
2017-01-23T05:51:05.485Z,85.52
2017-01-23T05:51:45.981Z,85.33
2017-01-23T05:52:26.496Z,85.33
2017-01-23T05:53:06.946Z,85.61
2017-01-23T05:53:47.453Z,86.18
2017-01-23T05:54:27.924Z,85.52
2017-01-23T05:55:08.440Z,85.33
2017-01-23T05:55:48.876Z,85.24
2017-01-23T05:56:29.436Z,85.33
2017-01-23T05:57:09.897Z,85.52
2017-01-23T05:57:50.401Z,86.18
2017-01-23T05:58:30.901Z,85.52
2017-01-23T05:59:11.577Z,85.9
2017-01-23T05:59:52.086Z,86.09
2017-01-23T06:00:32.555Z,86.18
2017-01-23T06:01:13.054Z,85.99
2017-01-23T06:01:53.549Z,86.09
2017-01-23T06:02:34.004Z,86.18
2017-01-23T06:03:14.570Z,86.18
2017-01-23T06:03:55.022Z,86.18
2017-01-23T06:04:35.591Z,85.8
2017-01-23T06:05:16.052Z,85.9
2017-01-23T06:05:56.500Z,86.09
2017-01-23T06:06:36.977Z,86.18
2017-01-23T06:07:17.475Z,85.8
2017-01-23T06:07:57.989Z,85.8
2017-01-23T06:08:38.530Z,86.09
2017-01-23T06:09:18.991Z,85.8
2017-01-23T06:09:59.528Z,85.9
2017-01-23T06:10:40.023Z,85.9
2017-01-23T06:11:20.470Z,86.18
2017-01-23T06:12:00.985Z,86.09
2017-01-23T06:12:41.466Z,86.09
2017-01-23T06:13:21.952Z,85.9
2017-01-23T06:14:02.483Z,85.9
2017-01-23T06:14:42.906Z,85.8
2017-01-23T06:15:23.393Z,85.71
2017-01-23T06:16:03.881Z,85.8
2017-01-23T06:16:44.593Z,85.71
2017-01-23T06:17:25.477Z,85.99
2017-01-23T06:18:06.175Z,85.8
2017-01-23T06:18:47.402Z,85.99
2017-01-23T06:19:28.085Z,85.8
2017-01-23T06:20:08.685Z,85.71
2017-01-23T06:20:49.661Z,86.28
2017-01-23T06:21:30.882Z,85.71
2017-01-23T06:22:11.379Z,85.99
2017-01-23T06:22:51.835Z,85.8
2017-01-23T06:23:33.110Z,85.9
2017-01-23T06:24:13.612Z,85.99
2017-01-23T06:24:54.599Z,86.09
2017-01-23T06:25:35.887Z,85.9
2017-01-23T06:26:16.385Z,85.99
2017-01-23T06:26:56.842Z,86.09
2017-01-23T06:27:37.975Z,86.47
2017-01-23T06:28:18.481Z,85.8
2017-01-23T06:29:01.803Z,85.61
2017-01-23T06:29:44.794Z,85.9
2017-01-23T06:30:26.048Z,85.99
2017-01-23T06:31:06.538Z,85.9
2017-01-23T06:31:46.966Z,86.09
2017-01-23T06:32:27.507Z,85.8
2017-01-23T06:33:07.994Z,86.18
2017-01-23T06:33:49.225Z,86.28
2017-01-23T06:34:29.722Z,86.18
2017-01-23T06:35:10.174Z,85.9
2017-01-23T06:35:53.031Z,85.99
2017-01-23T06:36:34.129Z,86.09
2017-01-23T06:37:14.667Z,85.9
2017-01-23T06:37:55.229Z,86.09
2017-01-23T06:38:38.010Z,86.18
2017-01-23T06:39:18.623Z,86.66
2017-01-23T06:39:59.122Z,86.66
2017-01-23T06:40:42.117Z,86.56
2017-01-23T06:41:22.637Z,86.66
2017-01-23T06:42:03.218Z,86.47
2017-01-23T06:42:43.663Z,86.47
2017-01-23T06:43:26.025Z,86.85
2017-01-23T06:44:07.556Z,86.56
2017-01-23T06:44:47.679Z,86.56
2017-01-23T06:45:28.359Z,85.99
2017-01-23T06:46:08.869Z,86.18
2017-01-23T06:46:49.325Z,86.47
2017-01-23T06:47:29.843Z,86.37
2017-01-23T06:48:10.428Z,86.09
2017-01-23T06:48:51.592Z,86.66
2017-01-23T06:49:32.306Z,86.09
2017-01-23T06:50:12.887Z,86.75
2017-01-23T06:50:54.064Z,86.66
2017-01-23T06:51:34.426Z,86.66
2017-01-23T06:52:15.133Z,86.47
2017-01-23T06:52:55.624Z,86.66
2017-01-23T06:53:38.516Z,86.47
2017-01-23T06:54:19.079Z,86.85
2017-01-23T06:54:59.527Z,86.94
2017-01-23T06:55:41.762Z,86.85
2017-01-23T06:56:22.394Z,86.66
2017-01-23T06:57:03.055Z,86.75
2017-01-23T06:57:43.657Z,86.75
2017-01-23T06:58:24.138Z,86.85
2017-01-23T06:59:04.883Z,86.66
2017-01-23T06:59:45.424Z,86.56
2017-01-23T07:00:25.888Z,86.66
2017-01-23T07:01:06.684Z,86.56
2017-01-23T07:01:47.015Z,86.56
2017-01-23T07:02:27.431Z,86.85
2017-01-23T07:03:08.256Z,86.85
2017-01-23T07:03:49.030Z,87.04
2017-01-23T07:04:29.615Z,86.75
2017-01-23T07:05:10.148Z,86.85
2017-01-23T07:05:50.618Z,86.85
2017-01-23T07:06:31.263Z,86.85
2017-01-23T07:07:11.730Z,86.94
2017-01-23T07:07:52.530Z,86.94
2017-01-23T07:08:32.924Z,86.75
2017-01-23T07:09:13.533Z,86.56
2017-01-23T07:09:54.380Z,86.75
2017-01-23T07:10:34.817Z,86.94
2017-01-23T07:11:15.431Z,86.47
2017-01-23T07:11:56.021Z,86.94
2017-01-23T07:12:36.816Z,86.66
2017-01-23T07:13:17.566Z,86.66
2017-01-23T07:13:57.912Z,86.66
2017-01-23T07:14:39.012Z,86.94
2017-01-23T07:15:19.433Z,86.75
2017-01-23T07:16:00.091Z,86.85
2017-01-23T07:16:40.566Z,86.75
2017-01-23T07:17:21.159Z,86.94
2017-01-23T07:18:01.579Z,87.04
2017-01-23T07:18:43.103Z,86.9
2017-01-23T07:19:24.007Z,87.13
2017-01-23T07:20:04.413Z,87.32
2017-01-23T07:20:45.135Z,87.32
2017-01-23T07:23:10.453Z,87.18
2017-01-23T07:23:59.771Z,87.65
2017-01-23T07:24:48.339Z,87.55
2017-01-23T07:25:36.887Z,87.37
2017-01-23T07:26:26.914Z,87.37
2017-01-23T07:27:13.904Z,87.46
2017-01-23T07:28:02.841Z,87.27
2017-01-23T07:28:51.749Z,87.65
2017-01-23T07:29:40.808Z,87.55
2017-01-23T07:30:29.400Z,87.65
2017-01-23T07:31:17.874Z,87.46
2017-01-23T07:32:06.452Z,87.55
2017-01-23T07:32:55.860Z,87.46
2017-01-23T07:33:43.818Z,87.55
2017-01-23T07:34:33.359Z,87.65
2017-01-23T07:35:22.253Z,87.55
2017-01-23T07:36:10.576Z,88.22
2017-01-23T07:36:58.400Z,88.41
2017-01-23T07:39:30.562Z,88.12
2017-01-23T07:41:53.844Z,88.12
2017-01-23T07:42:39.410Z,88.5
2017-01-23T07:43:19.854Z,88.12
2017-01-23T07:44:00.337Z,88.31
2017-01-23T07:44:40.864Z,88.79
2017-01-23T07:45:21.325Z,88.79
2017-01-23T07:46:03.365Z,88.88
2017-01-23T07:46:45.278Z,88.69
2017-01-23T07:47:26.627Z,88.5
2017-01-23T07:48:13.785Z,88.79
2017-01-23T07:48:59.883Z,88.93
2017-01-23T07:49:47.904Z,88.46
2017-01-23T07:50:31.905Z,88.5
2017-01-23T07:51:16.283Z,88.88
2017-01-23T07:51:56.781Z,89.64
2017-01-23T07:52:37.237Z,89.4
2017-01-23T07:53:25.336Z,89.64
2017-01-23T07:54:06.398Z,89.36
2017-01-23T07:54:46.968Z,89.22
2017-01-23T07:55:30.982Z,89.31
2017-01-23T07:56:12.981Z,88.36
2017-01-23T07:56:55.799Z,89.17
2017-01-23T07:57:37.148Z,89.36
2017-01-23T07:58:17.656Z,89.22
2017-01-23T07:58:58.744Z,89.07
2017-01-23T07:59:41.004Z,89.12
2017-01-23T08:00:24.282Z,89.12
2017-01-23T08:01:05.471Z,89.22
2017-01-23T08:01:57.154Z,89.03
2017-01-23T08:02:40.143Z,89.12
2017-01-23T08:03:20.608Z,88.74
2017-01-23T08:04:01.095Z,88.93
2017-01-23T08:04:41.604Z,89.12
2017-01-23T08:05:23.476Z,89.26
2017-01-23T08:06:04.528Z,89.4
2017-01-23T08:06:45.476Z,89.03
2017-01-23T08:07:26.016Z,89.12
2017-01-23T08:08:10.316Z,89.12
2017-01-23T08:08:55.423Z,89.12
2017-01-23T08:09:39.450Z,89.12
2017-01-23T08:10:20.688Z,89.5
2017-01-23T08:11:03.082Z,89.12
2017-01-23T08:11:44.593Z,89.22
2017-01-23T08:12:25.883Z,89.12
2017-01-23T08:13:06.386Z,89.4
2017-01-23T08:13:46.846Z,89.22
2017-01-23T08:14:27.355Z,89.12
2017-01-23T08:15:07.883Z,89.12
2017-01-23T08:15:48.332Z,89.12
2017-01-23T08:16:28.856Z,89.31
2017-01-23T08:17:12.225Z,88.93
2017-01-23T08:17:52.818Z,88.93
2017-01-23T08:18:33.364Z,88.84
2017-01-23T08:19:13.891Z,88.93
2017-01-23T08:19:54.394Z,88.84
2017-01-23T08:20:34.925Z,89.12
2017-01-23T08:21:16.124Z,89.12
2017-01-23T08:21:56.621Z,89.12
2017-01-23T08:22:37.192Z,89.12
2017-01-23T08:23:18.747Z,89.26
2017-01-23T08:23:59.868Z,89.22
2017-01-23T08:24:41.109Z,89.03
2017-01-23T08:25:21.514Z,89.36
2017-01-23T08:26:03.526Z,88.98
2017-01-23T08:26:44.083Z,89.17
2017-01-23T08:27:35.531Z,89.17
2017-01-23T08:28:25.038Z,89.36
2017-01-23T08:29:11.768Z,89.17
2017-01-23T08:31:11.820Z,88.98
2017-01-23T08:31:59.819Z,89.54
2017-01-23T08:32:51.552Z,88.88
2017-01-23T08:33:39.611Z,88.79
2017-01-23T08:34:35.587Z,88.98
2017-01-23T08:35:26.424Z,89.07
2017-01-23T08:36:21.498Z,88.79
2017-01-23T08:37:19.443Z,88.79
2017-01-23T08:38:05.690Z,89.26
2017-01-23T08:38:51.597Z,89.36
2017-01-23T08:39:36.597Z,88.5
2017-01-23T08:40:24.488Z,89.54
2017-01-23T08:41:13.633Z,89.26
2017-01-23T08:41:55.999Z,89.26
2017-01-23T08:42:36.696Z,88.79
2017-01-23T08:43:26.732Z,88.6
2017-01-23T08:44:17.451Z,88.31
2017-01-23T08:46:43.316Z,88.41
2017-01-23T08:47:30.486Z,88.31
2017-01-23T08:50:07.629Z,88.69
2017-01-23T08:50:56.850Z,88.88
2017-01-23T08:52:54.900Z,88.12
2017-01-23T08:53:44.053Z,88.22
2017-01-23T08:54:33.223Z,88.22
2017-01-23T08:55:21.565Z,88.12
2017-01-23T08:56:07.492Z,88.12
2017-01-23T08:56:54.135Z,88.31
2017-01-23T08:57:35.898Z,87.65
2017-01-23T08:59:29.943Z,88.12
2017-01-23T09:00:16.830Z,88.22
2017-01-23T09:01:06.838Z,88.17
2017-01-23T09:01:48.342Z,88.22
2017-01-23T09:02:29.727Z,88.31
2017-01-23T09:03:14.968Z,88.36
2017-01-23T09:04:05.235Z,88.45
2017-01-23T09:04:54.687Z,87.6
2017-01-23T09:05:38.853Z,87.51
2017-01-23T09:06:19.323Z,87.51
2017-01-23T09:07:00.843Z,87.32
2017-01-23T09:07:42.828Z,87.6
2017-01-23T09:08:23.939Z,87.7
2017-01-23T09:09:05.128Z,87.51